Time;durP1;ratioP1;P1;durP2;ratioP2;P2;SDS_P1;SDS_P2;PMS_P1;PMS_P2;Temp;Humidity;BMP_temperature;BMP_pressure;BME280_temperature;BME280_humidity;BME280_pressure;Samples;Min_cycle;Max_cycle;Signal;HPM_P1;HPM_P2
2023/07/29 00:01:35;;;;;;;4.80;2.95;;;;;;;26.18;52.85;99772.28;5092590;28;20122;-69
2023/07/29 00:04:05;;;;;;;5.30;3.00;;;;;;;26.17;52.44;99770.59;5092211;28;20093;-69
2023/07/29 00:06:34;;;;;;;5.15;2.78;;;;;;;26.17;52.71;99767.03;5092493;28;20396;-69
2023/07/29 00:09:03;;;;;;;4.55;2.83;;;;;;;26.16;52.44;99768.91;5092504;28;20040;-68
2023/07/29 00:11:33;;;;;;;5.07;3.10;;;;;;;26.15;52.80;99775.44;5092000;28;20422;-69
2023/07/29 00:14:01;;;;;;;6.15;3.38;;;;;;;26.14;52.41;99773.72;5092212;28;20094;-68
2023/07/29 00:16:30;;;;;;;5.00;2.80;;;;;;;26.13;52.84;99774.78;5092179;28;20048;-69
2023/07/29 00:18:58;;;;;;;5.57;3.10;;;;;;;26.13;52.81;99768.47;5092246;28;20052;-69
2023/07/29 00:21:28;;;;;;;4.90;3.05;;;;;;;26.11;52.74;99771.41;5092311;28;20044;-69
2023/07/29 00:23:57;;;;;;;5.15;3.20;;;;;;;26.12;52.72;99767.63;5092291;28;20059;-69
2023/07/29 00:26:28;;;;;;;5.72;2.85;;;;;;;26.10;52.77;99769.72;5091878;28;20058;-68
2023/07/29 00:28:56;;;;;;;5.65;2.80;;;;;;;26.09;53.09;99762.56;5091335;28;20052;-69
2023/07/29 00:31:25;;;;;;;5.45;3.10;;;;;;;26.10;53.02;99757.94;5091657;28;20055;-69
2023/07/29 00:33:53;;;;;;;7.20;2.97;;;;;;;26.08;53.00;99765.50;5092184;28;20373;-69
2023/07/29 00:36:22;;;;;;;5.25;2.78;;;;;;;26.07;53.08;99761.94;5092019;28;20047;-69
2023/07/29 00:38:52;;;;;;;5.30;3.10;;;;;;;26.08;53.00;99766.34;5092055;28;20044;-69
2023/07/29 00:41:23;;;;;;;6.30;3.05;;;;;;;26.07;52.77;99772.03;5091613;28;20521;-69
2023/07/29 00:43:51;;;;;;;5.50;3.08;;;;;;;26.06;52.79;99763.00;5091637;28;20476;-69
2023/07/29 00:46:21;;;;;;;6.82;3.08;;;;;;;26.06;53.15;99762.16;5091940;28;20040;-68
2023/07/29 00:48:49;;;;;;;5.65;2.92;;;;;;;26.05;53.10;99765.91;5091814;28;20047;-69
2023/07/29 00:51:17;;;;;;;5.25;2.97;;;;;;;26.03;52.96;99766.09;5091523;28;20404;-67
2023/07/29 00:53:46;;;;;;;5.97;3.08;;;;;;;26.03;53.16;99768.84;5091539;28;20044;-70
2023/07/29 00:56:15;;;;;;;5.38;2.95;;;;;;;26.02;53.07;99767.16;5091750;28;20044;-69
2023/07/29 00:58:43;;;;;;;5.53;3.15;;;;;;;26.01;53.47;99761.91;5091459;28;20043;-69
2023/07/29 01:01:12;;;;;;;4.43;3.10;;;;;;;26.01;53.47;99759.16;5091663;28;20104;-68
2023/07/29 01:03:40;;;;;;;5.93;2.67;;;;;;;25.98;53.50;99757.69;5091728;28;20135;-69
2023/07/29 01:06:19;;;;;;;5.05;3.00;;;;;;;25.98;53.40;99754.97;5091339;28;20131;-68
2023/07/29 01:08:56;;;;;;;5.45;2.92;;;;;;;25.98;53.55;99760.44;5091462;28;20048;-70
2023/07/29 01:11:36;;;;;;;5.03;2.60;;;;;;;25.97;53.83;99753.28;5090956;28;20056;-68
2023/07/29 01:14:18;;;;;;;4.78;2.75;;;;;;;25.96;53.57;99754.31;5091219;28;20048;-69
2023/07/29 01:16:53;;;;;;;6.05;2.70;;;;;;;25.95;53.41;99760.81;5091350;28;20481;-69
2023/07/29 01:19:37;;;;;;;5.50;2.90;;;;;;;25.94;53.83;99759.13;5091224;28;20577;-67
2023/07/29 01:22:08;;;;;;;5.03;2.70;;;;;;;25.92;53.38;99767.53;5091434;28;20048;-69
2023/07/29 01:24:37;;;;;;;4.55;2.70;;;;;;;25.94;53.63;99761.88;5091548;28;20044;-69
2023/07/29 01:27:06;;;;;;;5.75;2.85;;;;;;;25.92;53.44;99755.78;5091576;28;20047;-69
2023/07/29 01:29:35;;;;;;;4.75;2.78;;;;;;;25.91;53.51;99748.63;5091190;28;20056;-69
2023/07/29 01:32:11;;;;;;;4.63;2.70;;;;;;;25.90;53.69;99758.72;5090912;28;20054;-69
2023/07/29 01:34:46;;;;;;;4.10;2.70;;;;;;;25.90;53.80;99757.88;5091471;28;20044;-69
2023/07/29 01:37:20;;;;;;;4.00;2.60;;;;;;;25.89;53.49;99757.03;5091136;28;20497;-69
2023/07/29 01:39:51;;;;;;;3.83;2.42;;;;;;;25.88;53.69;99749.03;5092332;28;20056;-69
2023/07/29 01:42:19;;;;;;;4.80;2.88;;;;;;;25.87;53.87;99755.56;5095061;28;20048;-68
2023/07/29 01:44:48;;;;;;;4.40;2.90;;;;;;;25.87;53.56;99758.28;5095379;28;20137;-69
2023/07/29 01:47:16;;;;;;;4.60;2.50;;;;;;;25.86;53.41;99762.03;5095415;28;20093;-69
2023/07/29 01:49:44;;;;;;;4.40;2.72;;;;;;;25.85;53.49;99754.88;5095054;28;20054;-68
2023/07/29 01:52:13;;;;;;;4.03;2.72;;;;;;;25.84;53.12;99756.78;5095046;28;20070;-69
2023/07/29 01:54:41;;;;;;;5.45;3.05;;;;;;;25.83;53.62;99757.81;5094884;28;20471;-69
2023/07/29 01:57:11;;;;;;;5.28;2.80;;;;;;;25.81;53.59;99753.63;5094788;28;20044;-69
2023/07/29 01:59:39;;;;;;;4.13;2.30;;;;;;;25.81;53.56;99753.63;5094993;28;20432;-69
2023/07/29 02:02:07;;;;;;;3.92;2.60;;;;;;;25.80;53.76;99758.25;5094797;28;20104;-69
2023/07/29 02:04:35;;;;;;;4.72;2.85;;;;;;;25.79;53.57;99758.44;5094658;28;20048;-69
2023/07/29 02:07:04;;;;;;;4.65;2.67;;;;;;;25.73;53.50;99760.09;5094945;28;20456;-69
2023/07/29 02:09:32;;;;;;;6.22;2.40;;;;;;;25.79;53.68;99761.19;5094580;28;20044;-68
2023/07/29 02:12:00;;;;;;;3.63;2.40;;;;;;;25.78;53.64;99762.22;5094682;28;20138;-68
2023/07/29 02:14:30;;;;;;;5.15;2.80;;;;;;;25.77;53.47;99763.25;5094731;28;20056;-68
2023/07/29 02:16:58;;;;;;;6.22;2.90;;;;;;;25.76;53.22;99756.09;5094595;28;20123;-68
2023/07/29 02:19:26;;;;;;;4.45;2.30;;;;;;;25.74;53.35;99755.47;5094980;28;20044;-68
2023/07/29 02:21:54;;;;;;;4.53;2.60;;;;;;;25.75;53.88;99757.16;5094729;28;20105;-70
2023/07/29 02:24:23;;;;;;;4.15;2.38;;;;;;;25.74;53.40;99752.72;5094492;28;20427;-69
2023/07/29 02:26:51;;;;;;;4.22;2.60;;;;;;;25.73;53.58;99762.81;5094536;28;20052;-69
2023/07/29 02:29:19;;;;;;;4.90;2.47;;;;;;;25.72;53.52;99757.56;5094296;28;20055;-69
2023/07/29 02:31:49;;;;;;;4.60;2.40;;;;;;;25.72;53.64;99773.94;5094139;28;20054;-69
2023/07/29 02:34:17;;;;;;;4.80;2.45;;;;;;;25.69;53.59;99773.28;5094221;28;20478;-69
2023/07/29 02:36:46;;;;;;;4.93;2.40;;;;;;;25.68;53.51;99768.88;5094049;28;20044;-68
2023/07/29 02:39:14;;;;;;;4.03;2.42;;;;;;;25.67;53.73;99769.91;5094210;28;20056;-68
2023/07/29 02:41:42;;;;;;;4.22;2.50;;;;;;;25.66;53.48;99762.75;5094174;28;20048;-69
2023/07/29 02:44:10;;;;;;;4.80;2.55;;;;;;;25.64;53.35;99759.38;5094201;28;20040;-69
2023/07/29 02:46:38;;;;;;;4.40;2.65;;;;;;;25.66;53.54;99761.91;5094224;28;20101;-68
2023/07/29 02:49:08;;;;;;;5.15;2.65;;;;;;;25.64;53.26;99770.31;5093999;28;20050;-69
2023/07/29 02:51:37;;;;;;;5.22;2.63;;;;;;;25.63;53.33;99768.63;5092988;28;20044;-69
2023/07/29 02:54:05;;;;;;;5.22;2.38;;;;;;;25.62;53.28;99766.09;5093942;28;20451;-69
2023/07/29 02:56:33;;;;;;;5.47;2.40;;;;;;;25.63;53.43;99770.50;5094017;28;20075;-68
2023/07/29 02:59:02;;;;;;;6.13;2.47;;;;;;;25.63;53.38;99768.63;5093747;28;20131;-68
2023/07/29 03:01:30;;;;;;;3.85;2.28;;;;;;;25.61;53.29;99767.97;5093758;28;20093;-67
2023/07/29 03:03:58;;;;;;;5.40;2.40;;;;;;;25.60;53.24;99766.31;5093730;28;20044;-69
2023/07/29 03:06:28;;;;;;;4.85;2.50;;;;;;;25.59;53.32;99772.81;5093740;28;20108;-68
2023/07/29 03:08:56;;;;;;;6.53;2.63;;;;;;;25.57;53.65;99766.69;5093682;28;20051;-69
2023/07/29 03:11:24;;;;;;;4.63;2.72;;;;;;;25.57;53.63;99763.09;5093186;28;20070;-68
2023/07/29 03:13:53;;;;;;;5.05;2.50;;;;;;;25.56;53.57;99770.47;5093356;28;20058;-68
2023/07/29 03:16:22;;;;;;;3.80;2.60;;;;;;;25.55;53.17;99768.78;5093401;28;20059;-69
2023/07/29 03:18:50;;;;;;;3.92;2.30;;;;;;;25.54;53.38;99767.09;5093392;28;20200;-69
2023/07/29 03:21:19;;;;;;;5.05;2.38;;;;;;;25.54;53.15;99768.97;5093493;28;20105;-69
2023/07/29 03:23:48;;;;;;;4.55;2.40;;;;;;;25.54;53.16;99774.44;5093510;28;20433;-69
2023/07/29 03:26:17;;;;;;;3.97;2.33;;;;;;;25.53;53.68;99776.34;5093244;28;20048;-69
2023/07/29 03:28:45;;;;;;;4.60;2.55;;;;;;;25.52;53.37;99777.38;5093154;28;20075;-68
2023/07/29 03:31:13;;;;;;;4.20;2.50;;;;;;;25.51;53.47;99775.69;5093125;28;20052;-68
2023/07/29 03:33:42;;;;;;;4.30;2.53;;;;;;;25.50;53.12;99768.56;5093259;28;20634;-69
2023/07/29 03:36:10;;;;;;;5.57;2.55;;;;;;;25.50;53.13;99778.63;5092937;28;20055;-69
2023/07/29 03:38:40;;;;;;;4.38;2.35;;;;;;;25.48;53.61;99769.78;5093003;28;20393;-69
2023/07/29 03:41:10;;;;;;;4.75;2.47;;;;;;;25.47;53.61;99768.94;5093121;28;20682;-69
2023/07/29 03:43:38;;;;;;;5.18;2.55;;;;;;;25.47;53.66;99771.66;5092628;28;20053;-68
2023/07/29 03:46:06;;;;;;;4.88;2.78;;;;;;;25.46;53.28;99777.31;5093043;28;20048;-69
2023/07/29 03:48:39;;;;;;;4.90;2.60;;;;;;;25.45;53.25;99770.19;5092971;28;20437;-69
2023/07/29 03:51:07;;;;;;;4.28;2.55;;;;;;;25.44;53.37;99769.34;5092859;28;20143;-68
2023/07/29 03:53:35;;;;;;;4.72;2.70;;;;;;;25.44;53.65;99774.81;5092533;28;20094;-68
2023/07/29 03:56:04;;;;;;;4.93;2.60;;;;;;;25.43;53.56;99773.13;5092531;28;20455;-70
2023/07/29 03:58:33;;;;;;;4.43;2.30;;;;;;;25.42;53.66;99782.34;5092620;28;20048;-67
2023/07/29 04:01:01;;;;;;;3.78;2.28;;;;;;;25.42;53.40;99781.50;5092615;28;20040;-69
2023/07/29 04:03:30;;;;;;;4.50;2.63;;;;;;;25.40;53.53;99779.81;5091387;28;20044;-69
2023/07/29 04:05:58;;;;;;;4.07;2.20;;;;;;;25.40;53.61;99779.81;5092407;28;20076;-69
2023/07/29 04:08:26;;;;;;;4.47;2.50;;;;;;;25.40;53.49;99788.03;5092345;28;20044;-69
2023/07/29 04:10:54;;;;;;;4.82;2.47;;;;;;;25.40;53.57;99789.91;5092108;28;20059;-69
2023/07/29 04:13:23;;;;;;;3.85;2.45;;;;;;;25.39;53.55;99783.59;5092389;28;20048;-69
2023/07/29 04:15:52;;;;;;;5.25;2.88;;;;;;;25.38;53.31;99781.91;5092400;28;20530;-69
2023/07/29 04:18:21;;;;;;;4.38;2.45;;;;;;;25.38;53.60;99781.03;5092308;28;20048;-69
2023/07/29 04:20:49;;;;;;;4.28;2.60;;;;;;;25.37;53.59;99774.75;5092391;28;20386;-69
2023/07/29 04:23:17;;;;;;;3.80;2.47;;;;;;;25.37;53.38;99779.38;5092125;28;20055;-69
2023/07/29 04:25:45;;;;;;;4.15;2.60;;;;;;;25.37;53.45;99785.66;5092277;28;20047;-68
2023/07/29 04:28:13;;;;;;;4.65;2.58;;;;;;;25.36;53.74;99788.59;5091875;28;20569;-68
2023/07/29 04:30:42;;;;;;;3.58;2.30;;;;;;;25.35;53.49;99786.91;5092165;28;20408;-69
2023/07/29 04:33:11;;;;;;;4.78;2.50;;;;;;;25.35;53.41;99785.03;5091758;28;20071;-68
2023/07/29 04:35:39;;;;;;;4.25;2.53;;;;;;;25.23;53.95;99767.53;5091802;28;20485;-68
2023/07/29 04:38:08;;;;;;;4.47;2.65;;;;;;;25.35;53.60;99786.91;5091742;28;20496;-69
2023/07/29 04:40:36;;;;;;;4.28;2.65;;;;;;;25.34;53.88;99787.97;5091638;28;20060;-68
2023/07/29 04:43:04;;;;;;;4.57;2.83;;;;;;;25.35;53.77;99789.66;5091948;28;20136;-69
2023/07/29 04:45:33;;;;;;;4.78;2.83;;;;;;;25.34;53.64;99785.22;5091812;28;20055;-68
2023/07/29 04:48:01;;;;;;;4.32;2.78;;;;;;;25.33;53.46;99783.56;5091585;28;20044;-68
2023/07/29 04:50:30;;;;;;;4.43;2.65;;;;;;;25.33;53.77;99780.81;5091675;28;20055;-68
2023/07/29 04:52:58;;;;;;;4.75;2.50;;;;;;;25.33;53.57;99783.56;5091740;28;20121;-68
2023/07/29 04:55:27;;;;;;;5.53;2.80;;;;;;;25.32;53.56;99781.88;5091654;28;20043;-69
2023/07/29 04:57:55;;;;;;;4.53;2.70;;;;;;;25.31;53.42;99783.75;5091787;28;20048;-69
2023/07/29 05:00:23;;;;;;;4.38;2.63;;;;;;;25.32;53.63;99787.31;5091513;28;20093;-67
2023/07/29 05:02:52;;;;;;;5.18;3.00;;;;;;;25.32;53.39;99788.16;5091604;28;20151;-69
2023/07/29 05:05:20;;;;;;;4.95;2.70;;;;;;;25.32;53.58;99782.72;5091623;28;20442;-69
2023/07/29 05:07:50;;;;;;;4.78;2.80;;;;;;;25.32;53.36;99790.06;5091412;28;20048;-69
2023/07/29 05:10:18;;;;;;;4.20;2.88;;;;;;;25.32;53.48;99788.16;5091268;28;20552;-69
2023/07/29 05:12:46;;;;;;;4.10;2.50;;;;;;;25.32;53.70;99795.50;5091611;28;20055;-68
2023/07/29 05:15:14;;;;;;;4.80;3.08;;;;;;;25.33;53.64;99794.47;5093468;28;20103;-68
2023/07/29 05:17:43;;;;;;;5.40;2.90;;;;;;;25.32;53.57;99792.78;5095792;28;20047;-68
2023/07/29 05:20:12;;;;;;;3.55;2.60;;;;;;;25.33;53.62;99794.47;5095478;28;20512;-69
2023/07/29 05:22:40;;;;;;;4.35;2.63;;;;;;;25.33;53.50;99794.47;5095508;28;20123;-69
2023/07/29 05:25:10;;;;;;;4.63;2.72;;;;;;;25.33;53.55;99797.19;5095405;28;20089;-68
2023/07/29 05:27:39;;;;;;;5.05;2.75;;;;;;;25.32;53.36;99799.09;5095469;28;20131;-68
2023/07/29 05:30:09;;;;;;;4.40;2.80;;;;;;;25.32;53.58;99806.44;5095597;28;20078;-69
2023/07/29 05:32:37;;;;;;;4.10;2.70;;;;;;;25.31;53.29;99805.59;5095104;28;20048;-68
2023/07/29 05:35:07;;;;;;;3.90;2.60;;;;;;;25.31;53.39;99810.22;5095507;28;20127;-68
2023/07/29 05:37:35;;;;;;;4.50;2.80;;;;;;;25.31;53.18;99804.75;5095525;28;20059;-68
2023/07/29 05:40:04;;;;;;;4.10;2.42;;;;;;;25.30;52.98;99812.09;5095061;28;20135;-68
2023/07/29 05:42:34;;;;;;;4.63;2.80;;;;;;;25.31;53.44;99813.78;5095258;28;20051;-68
2023/07/29 05:45:03;;;;;;;3.97;2.70;;;;;;;25.31;53.57;99818.41;5095227;28;20040;-67
2023/07/29 05:47:31;;;;;;;3.58;2.42;;;;;;;25.30;53.63;99816.72;5095243;28;20048;-67
2023/07/29 05:50:01;;;;;;;3.83;2.53;;;;;;;25.31;53.52;99823.84;5095272;28;20044;-67
2023/07/29 05:52:30;;;;;;;4.43;2.50;;;;;;;25.30;53.15;99828.47;5095039;28;20047;-67
2023/07/29 05:54:58;;;;;;;3.90;2.70;;;;;;;25.31;53.17;99826.59;5095029;28;20052;-67
2023/07/29 05:57:28;;;;;;;4.57;2.50;;;;;;;25.31;53.12;99821.13;5094730;28;20052;-67
2023/07/29 05:59:57;;;;;;;4.13;2.47;;;;;;;25.30;53.07;99827.63;5094929;28;20044;-68
2023/07/29 06:02:25;;;;;;;3.67;2.58;;;;;;;25.32;53.02;99831.00;5094648;28;20054;-67
2023/07/29 06:04:54;;;;;;;4.45;2.42;;;;;;;25.31;53.10;99840.22;5094783;28;20150;-67
2023/07/29 06:07:22;;;;;;;4.22;2.42;;;;;;;25.31;53.36;99834.78;5094844;28;20048;-67
2023/07/29 06:09:51;;;;;;;4.35;2.80;;;;;;;25.31;53.22;99841.06;5094543;28;20056;-68
2023/07/29 06:12:21;;;;;;;3.78;2.50;;;;;;;25.32;53.31;99852.84;5094450;28;20052;-69
2023/07/29 06:14:49;;;;;;;4.03;2.67;;;;;;;25.32;53.48;99856.41;5094602;28;20044;-67
2023/07/29 06:17:19;;;;;;;3.97;2.65;;;;;;;25.32;53.72;99856.41;5094409;28;20131;-68
2023/07/29 06:19:47;;;;;;;5.30;2.75;;;;;;;25.33;53.85;99859.97;5094569;28;20044;-67
2023/07/29 06:22:15;;;;;;;3.97;2.65;;;;;;;25.33;54.06;99857.25;5093590;28;20488;-68
2023/07/29 06:24:43;;;;;;;3.78;2.38;;;;;;;25.33;53.95;99859.97;5093955;28;20076;-69
2023/07/29 06:27:12;;;;;;;4.95;3.10;;;;;;;25.33;53.68;99865.44;5093066;28;20082;-68
2023/07/29 06:29:40;;;;;;;4.85;2.83;;;;;;;25.33;54.05;99862.72;5094129;28;20047;-69
2023/07/29 06:32:08;;;;;;;4.65;2.97;;;;;;;25.34;54.03;99865.25;5094322;28;20070;-68
2023/07/29 06:34:40;;;;;;;4.40;2.83;;;;;;;25.35;53.81;99868.81;5094260;28;20055;-67
2023/07/29 06:37:09;;;;;;;5.03;2.92;;;;;;;25.34;53.59;99857.03;5094426;28;20402;-68
2023/07/29 06:39:37;;;;;;;4.65;2.80;;;;;;;25.34;53.50;99856.22;5094284;28;20074;-68
2023/07/29 06:42:05;;;;;;;4.10;2.40;;;;;;;25.35;53.36;99863.34;5094164;28;20048;-67
2023/07/29 06:44:34;;;;;;;4.22;2.50;;;;;;;25.37;53.43;99866.72;5093788;28;20621;-67
2023/07/29 06:47:02;;;;;;;3.88;2.47;;;;;;;25.36;53.57;99860.41;5093854;28;20044;-68
2023/07/29 06:49:30;;;;;;;4.40;2.75;;;;;;;25.37;53.20;99864.00;5093782;28;20453;-68
2023/07/29 06:52:00;;;;;;;4.88;2.75;;;;;;;25.37;53.44;99853.91;5093915;28;20048;-68
2023/07/29 06:54:28;;;;;;;4.65;2.55;;;;;;;25.37;53.46;99856.63;5093815;28;20044;-68
2023/07/29 06:57:00;;;;;;;3.78;2.40;;;;;;;25.38;53.13;99852.91;5094027;28;20048;-68
2023/07/29 06:59:28;;;;;;;5.80;2.90;;;;;;;25.39;53.54;99864.66;5093922;28;20044;-67
2023/07/29 07:01:56;;;;;;;4.28;2.42;;;;;;;25.39;53.96;99853.75;5093555;28;20048;-67
2023/07/29 07:04:24;;;;;;;3.95;2.40;;;;;;;25.39;53.50;99853.75;5093141;28;20465;-66
2023/07/29 07:06:52;;;;;;;4.85;2.60;;;;;;;25.40;53.78;99863.63;5093156;28;20040;-66
2023/07/29 07:09:22;;;;;;;4.07;2.45;;;;;;;25.41;53.74;99857.13;5093614;28;20386;-69
2023/07/29 07:11:50;;;;;;;3.92;2.80;;;;;;;25.42;53.45;99849.75;5093137;28;20056;-70
2023/07/29 07:14:18;;;;;;;4.10;2.60;;;;;;;25.43;53.35;99851.44;5093241;28;20378;-67
2023/07/29 07:16:47;;;;;;;4.78;2.75;;;;;;;25.44;54.27;99848.50;5093064;28;20044;-67
2023/07/29 07:19:15;;;;;;;4.15;2.50;;;;;;;25.43;53.80;99838.63;5093436;28;20050;-67
2023/07/29 07:21:43;;;;;;;4.28;2.65;;;;;;;25.45;53.69;99855.66;5093191;28;20422;-68
2023/07/29 07:24:12;;;;;;;4.85;2.88;;;;;;;25.46;53.82;99848.31;5099675;28;20102;-69
2023/07/29 07:26:41;;;;;;;5.43;2.80;;;;;;;25.47;53.83;99847.28;5097363;28;20450;-69
2023/07/29 07:29:10;;;;;;;3.50;2.28;;;;;;;25.46;53.60;99851.03;5092919;28;20406;-69
2023/07/29 07:31:38;;;;;;;4.45;2.95;;;;;;;25.48;53.55;99849.81;5092720;28;20048;-68
2023/07/29 07:34:09;;;;;;;4.78;2.72;;;;;;;25.49;54.04;99851.50;5093098;28;20048;-68
2023/07/29 07:36:37;;;;;;;4.32;2.70;;;;;;;25.49;53.81;99848.78;5093134;28;20044;-68
2023/07/29 07:39:06;;;;;;;3.90;2.60;;;;;;;25.49;53.63;99843.31;5092947;28;20093;-69
2023/07/29 07:41:35;;;;;;;3.63;2.60;;;;;;;25.49;53.81;99840.59;5092824;28;20048;-68
2023/07/29 07:44:04;;;;;;;4.00;2.50;;;;;;;25.50;53.51;99839.53;5092866;28;20428;-67
2023/07/29 07:46:32;;;;;;;4.45;2.67;;;;;;;25.49;53.51;99847.94;5092953;28;20446;-66
2023/07/29 07:49:01;;;;;;;5.13;2.75;;;;;;;25.50;53.57;99836.81;5092656;28;20044;-67
2023/07/29 07:51:29;;;;;;;4.10;2.60;;;;;;;25.50;53.88;99839.53;5092706;28;20523;-68
2023/07/29 07:53:57;;;;;;;4.35;2.72;;;;;;;25.52;53.38;99834.72;5092300;28;20043;-69
2023/07/29 07:56:25;;;;;;;4.43;2.70;;;;;;;25.52;53.36;99840.19;5092443;28;20505;-68
2023/07/29 07:58:54;;;;;;;4.05;2.70;;;;;;;25.53;53.66;99828.22;5092596;28;20131;-68
2023/07/29 08:01:23;;;;;;;4.53;2.60;;;;;;;25.54;53.92;99829.91;5092398;28;20050;-68
2023/07/29 08:03:51;;;;;;;4.07;2.47;;;;;;;25.54;53.70;99823.59;5092345;28;20477;-67
2023/07/29 08:06:20;;;;;;;3.90;2.65;;;;;;;25.55;53.60;99819.81;5092617;28;20413;-67
2023/07/29 08:08:48;;;;;;;3.92;2.58;;;;;;;25.55;53.58;99828.84;5092415;28;20040;-69
2023/07/29 08:11:16;;;;;;;4.10;2.65;;;;;;;25.56;53.73;99832.41;5091877;28;20101;-68
2023/07/29 08:13:44;;;;;;;4.88;2.85;;;;;;;25.56;53.80;99825.06;5092431;28;20055;-68
2023/07/29 08:16:14;;;;;;;4.47;2.67;;;;;;;25.57;53.26;99832.22;5091999;28;20094;-67
2023/07/29 08:18:43;;;;;;;4.10;2.47;;;;;;;25.57;53.67;99829.50;5076596;28;20036;-69
2023/07/29 08:21:11;;;;;;;4.15;2.40;;;;;;;25.59;53.53;99826.59;5091864;28;20054;-70
2023/07/29 08:23:40;;;;;;;3.10;2.20;;;;;;;25.59;53.50;99827.44;5092327;28;20131;-67
2023/07/29 08:26:08;;;;;;;5.13;2.33;;;;;;;25.59;53.34;99816.50;5086260;28;20056;-67
2023/07/29 08:28:45;;;;;;;3.63;2.33;;;;;;;25.60;53.77;99818.19;5079530;28;20151;-65
2023/07/29 08:31:22;;;;;;;3.90;2.50;;;;;;;25.62;53.51;99821.56;5071482;28;20041;-67
2023/07/29 08:33:52;;;;;;;5.30;2.53;;;;;;;25.62;53.60;99815.25;5072803;28;20040;-65
2023/07/29 08:36:20;;;;;;;4.45;2.50;;;;;;;25.62;53.80;99818.81;5091694;28;20407;-66
2023/07/29 08:38:48;;;;;;;5.63;2.45;;;;;;;25.63;53.90;99812.31;5091987;28;20058;-64
2023/07/29 08:41:21;;;;;;;3.97;2.40;;;;;;;25.66;53.87;99817.38;5091125;28;20125;-66
2023/07/29 08:43:57;;;;;;;3.78;2.30;;;;;;;25.66;53.77;99811.91;5091978;28;20257;-64
2023/07/29 08:46:26;;;;;;;3.60;2.47;;;;;;;25.68;53.49;99809.00;5091552;28;20058;-65
2023/07/29 08:48:56;;;;;;;4.90;2.55;;;;;;;25.69;53.33;99811.53;5091367;28;20052;-66
2023/07/29 08:51:26;;;;;;;3.80;2.50;;;;;;;25.68;53.48;99809.84;5091668;28;20048;-64
2023/07/29 08:53:54;;;;;;;3.65;2.30;;;;;;;25.69;53.73;99811.53;5090487;28;20048;-66
2023/07/29 08:56:22;;;;;;;4.45;2.55;;;;;;;25.73;53.75;99808.41;5090534;28;20051;-65
2023/07/29 08:58:51;;;;;;;4.05;2.58;;;;;;;25.73;53.65;99812.00;5091582;28;20101;-64
2023/07/29 09:01:20;;;;;;;3.88;2.35;;;;;;;25.74;53.67;99810.94;5089962;28;20497;-65
2023/07/29 09:03:48;;;;;;;4.78;2.53;;;;;;;25.74;53.64;99805.47;5091123;28;20071;-65
2023/07/29 09:06:22;;;;;;;3.97;2.50;;;;;;;25.75;53.61;99806.31;5091256;28;20051;-65
2023/07/29 09:08:52;;;;;;;3.83;2.30;;;;;;;25.77;53.72;99802.38;5091214;28;20167;-65
2023/07/29 09:11:20;;;;;;;4.35;2.30;;;;;;;25.78;53.78;99808.66;5090775;28;20080;-65
2023/07/29 09:13:48;;;;;;;3.63;2.20;;;;;;;25.79;53.67;99800.28;5090894;28;20048;-65
2023/07/29 09:16:17;;;;;;;3.65;2.30;;;;;;;25.80;53.80;99801.94;5090562;28;20536;-65
2023/07/29 09:18:48;;;;;;;3.67;2.35;;;;;;;25.82;53.80;99807.22;5091137;28;20040;-65
2023/07/29 09:21:17;;;;;;;3.83;2.58;;;;;;;25.83;53.38;99800.69;5091179;28;20071;-65
2023/07/29 09:23:47;;;;;;;4.03;2.35;;;;;;;25.84;53.75;99805.09;5091094;28;20048;-65
2023/07/29 09:26:23;;;;;;;3.78;2.60;;;;;;;25.85;53.50;99799.44;5091114;28;20493;-65
2023/07/29 09:28:53;;;;;;;3.25;2.08;;;;;;;25.87;53.55;99804.72;5091353;28;20052;-67
2023/07/29 09:31:23;;;;;;;3.38;2.05;;;;;;;25.88;53.33;99801.78;5090596;28;20119;-64
2023/07/29 09:33:57;;;;;;;7.30;2.50;;;;;;;25.92;52.82;99796.75;5090656;28;20101;-67
2023/07/29 09:36:25;;;;;;;8.18;2.20;;;;;;;25.93;52.69;99796.53;5090668;28;20060;-67
2023/07/29 09:38:56;;;;;;;6.03;2.20;;;;;;;25.96;52.50;99795.28;5090765;28;20051;-68
2023/07/29 09:41:24;;;;;;;6.95;2.28;;;;;;;25.95;52.60;99791.72;5090695;28;20067;-67
2023/07/29 09:44:03;;;;;;;7.03;2.40;;;;;;;25.97;53.02;99791.53;5094581;28;20054;-69
2023/07/29 09:46:34;;;;;;;7.80;2.47;;;;;;;25.96;52.55;99784.34;5111604;28;20051;-68
2023/07/29 09:49:05;;;;;;;4.40;2.13;;;;;;;25.98;52.65;99785.03;5093859;28;20079;-68
2023/07/29 09:51:38;;;;;;;5.47;1.95;;;;;;;25.98;52.73;99787.75;5111241;28;20052;-68
2023/07/29 09:54:13;;;;;;;3.67;1.98;;;;;;;26.01;52.50;99778.31;5111636;28;20048;-67
2023/07/29 09:56:44;;;;;;;3.55;2.10;;;;;;;26.01;52.76;99776.41;5111115;28;20066;-68
2023/07/29 09:59:12;;;;;;;7.40;2.10;;;;;;;26.02;52.75;99778.09;5111453;28;20047;-68
2023/07/29 10:01:42;;;;;;;3.38;2.20;;;;;;;26.05;52.48;99783.13;5114136;28;20051;-68
2023/07/29 10:04:11;;;;;;;5.60;2.35;;;;;;;26.06;52.76;99784.00;5115055;28;20043;-68
2023/07/29 10:06:42;;;;;;;4.82;2.05;;;;;;;26.07;52.08;99775.59;5115324;28;20083;-69
2023/07/29 10:09:13;;;;;;;5.00;2.13;;;;;;;26.09;52.24;99776.22;5111142;28;20409;-68
2023/07/29 10:11:42;;;;;;;3.05;1.80;;;;;;;26.11;52.42;99773.28;5094121;28;20138;-69
2023/07/29 10:14:12;;;;;;;3.83;1.98;;;;;;;26.12;52.21;99777.72;5094548;28;20126;-70
2023/07/29 10:16:41;;;;;;;4.63;2.22;;;;;;;26.13;52.10;99763.84;5083082;28;20044;-68
2023/07/29 10:19:10;;;;;;;7.00;2.78;;;;;;;26.15;51.85;99769.09;5092698;28;20044;-69
2023/07/29 10:21:40;;;;;;;6.63;2.90;;;;;;;26.15;51.60;99761.75;5094113;28;20048;-69
2023/07/29 10:24:16;;;;;;;6.05;2.95;;;;;;;26.17;51.56;99762.41;5094530;28;20055;-68
2023/07/29 10:26:47;;;;;;;6.22;3.00;;;;;;;26.17;51.65;99756.94;5093008;28;20459;-68
2023/07/29 10:29:19;;;;;;;6.07;2.72;;;;;;;26.21;51.69;99763.66;5093253;28;20051;-67
2023/07/29 10:31:48;;;;;;;7.25;2.80;;;;;;;26.24;51.13;99762.41;5093500;28;20048;-66
2023/07/29 10:34:16;;;;;;;5.55;2.78;;;;;;;26.25;51.06;99759.47;5092561;28;20420;-65
2023/07/29 10:36:46;;;;;;;4.78;2.58;;;;;;;26.30;50.90;99768.94;5075996;28;20101;-67
2023/07/29 10:39:16;;;;;;;6.22;2.63;;;;;;;26.33;51.00;99769.38;5094137;28;20093;-66
2023/07/29 10:41:59;;;;;;;5.47;2.40;;;;;;;26.36;50.58;99763.50;5093412;28;20093;-66
2023/07/29 10:44:52;;;;;;;4.60;2.33;;;;;;;26.39;50.75;99759.53;5093690;28;20051;-67
2023/07/29 10:47:23;;;;;;;5.10;2.70;;;;;;;26.40;50.74;99753.03;5094062;28;20048;-64
2023/07/29 10:49:54;;;;;;;5.15;2.35;;;;;;;26.43;50.80;99753.44;5093761;28;20060;-67
2023/07/29 10:52:31;;;;;;;5.28;2.20;;;;;;;26.46;50.60;99746.72;5093285;28;20095;-64
2023/07/29 10:55:02;;;;;;;4.07;2.00;;;;;;;26.48;50.45;99750.09;5093309;28;20063;-69
2023/07/29 10:57:34;;;;;;;7.07;2.95;;;;;;;26.51;50.94;99746.94;5093451;28;20044;-66
2023/07/29 11:00:04;;;;;;;5.32;2.80;;;;;;;26.52;50.67;99751.34;5093156;28;20070;-68
2023/07/29 11:02:35;;;;;;;4.70;2.63;;;;;;;26.55;50.54;99748.22;5093480;28;20075;-66
2023/07/29 11:05:07;;;;;;;5.75;2.42;;;;;;;26.58;50.43;99747.78;5092811;28;20555;-66
2023/07/29 11:07:45;;;;;;;4.80;2.75;;;;;;;26.63;50.75;99742.53;5093199;28;20044;-66
2023/07/29 11:10:16;;;;;;;5.10;2.80;;;;;;;26.68;50.50;99748.22;5093003;28;20051;-65
2023/07/29 11:12:47;;;;;;;5.03;2.67;;;;;;;26.68;50.60;99756.44;5092360;28;20390;-66
2023/07/29 11:15:23;;;;;;;5.80;2.90;;;;;;;26.72;50.44;99748.66;5092812;28;20080;-67
2023/07/29 11:17:53;;;;;;;8.10;3.15;;;;;;;26.73;50.33;99745.72;5092660;28;20568;-67
2023/07/29 11:20:23;;;;;;;7.03;3.03;;;;;;;26.76;50.54;99750.78;5093085;28;20231;-66
2023/07/29 11:22:52;;;;;;;5.15;2.85;;;;;;;26.79;50.69;99754.97;5093277;28;20063;-67
2023/07/29 11:25:23;;;;;;;5.88;3.20;;;;;;;26.81;50.52;99756.44;5092592;28;20089;-68
2023/07/29 11:27:53;;;;;;;5.30;2.88;;;;;;;26.82;50.97;99752.66;5092998;28;20048;-67
2023/07/29 11:30:22;;;;;;;6.30;3.20;;;;;;;26.87;50.75;99754.78;5093004;28;20140;-66
2023/07/29 11:32:51;;;;;;;5.20;2.63;;;;;;;26.92;50.35;99759.59;5092544;28;20077;-68
2023/07/29 11:35:20;;;;;;;4.85;2.80;;;;;;;26.93;50.29;99751.22;5092390;28;20117;-67
2023/07/29 11:37:49;;;;;;;6.32;2.80;;;;;;;26.95;50.66;99740.03;5092573;28;20485;-68
2023/07/29 11:40:19;;;;;;;4.97;2.47;;;;;;;26.95;50.72;99745.50;5092595;28;20113;-70
2023/07/29 11:42:51;;;;;;;5.72;2.58;;;;;;;26.97;50.55;99746.13;5092773;28;20052;-67
2023/07/29 11:45:21;;;;;;;5.97;2.57;;;;;;;26.99;50.59;99744.03;5092206;28;20157;-68